sensor_id;sensor_type;location;lat;lon;timestamp;pressure;altitude;pressure_sealevel;temperature;humidity
43312;BME280;30041;48.300;16.352;2023-06-26T00:02:13;99837.50;;;23.33;50.78
43312;BME280;30041;48.300;16.352;2023-06-26T00:04:39;99837.22;;;23.35;50.74
43312;BME280;30041;48.300;16.352;2023-06-26T00:07:05;99844.53;;;23.34;50.64
43312;BME280;30041;48.300;16.352;2023-06-26T00:09:30;99839.13;;;23.34;50.69
43312;BME280;30041;48.300;16.352;2023-06-26T00:11:56;99842.91;;;23.33;50.79
43312;BME280;30041;48.300;16.352;2023-06-26T00:14:21;99849.38;;;23.32;50.80
43312;BME280;30041;48.300;16.352;2023-06-26T00:16:47;99857.72;;;23.31;51.18
43312;BME280;30041;48.300;16.352;2023-06-26T00:19:13;99851.25;;;23.32;50.88
43312;BME280;30041;48.300;16.352;2023-06-26T00:21:39;99853.38;;;23.30;50.78
43312;BME280;30041;48.300;16.352;2023-06-26T00:24:04;99853.38;;;23.30;51.00
43312;BME280;30041;48.300;16.352;2023-06-26T00:26:30;99853.63;;;23.28;50.68
43312;BME280;30041;48.300;16.352;2023-06-26T00:28:55;99849.59;;;23.31;50.83
43312;BME280;30041;48.300;16.352;2023-06-26T00:31:21;99845.28;;;23.30;50.71
43312;BME280;30041;48.300;16.352;2023-06-26T00:33:46;99852.00;;;23.27;50.67
43312;BME280;30041;48.300;16.352;2023-06-26T00:36:12;99847.41;;;23.28;51.00
43312;BME280;30041;48.300;16.352;2023-06-26T00:38:37;99842.22;;;23.26;50.80
43312;BME280;30041;48.300;16.352;2023-06-26T00:41:03;99846.81;;;23.26;50.88
43312;BME280;30041;48.300;16.352;2023-06-26T00:43:28;99840.59;;;23.25;50.51
43312;BME280;30041;48.300;16.352;2023-06-26T00:45:54;99842.72;;;23.23;50.94
43312;BME280;30041;48.300;16.352;2023-06-26T00:48:19;99836.00;;;23.26;50.81
43312;BME280;30041;48.300;16.352;2023-06-26T00:50:45;99837.88;;;23.25;50.70
43312;BME280;30041;48.300;16.352;2023-06-26T00:53:11;99846.00;;;23.25;50.72
43312;BME280;30041;48.300;16.352;2023-06-26T00:55:37;99842.22;;;23.26;50.67
43312;BME280;30041;48.300;16.352;2023-06-26T00:58:02;99844.34;;;23.24;50.74
43312;BME280;30041;48.300;16.352;2023-06-26T01:00:28;99850.59;;;23.25;51.02
43312;BME280;30041;48.300;16.352;2023-06-26T01:02:53;99838.94;;;23.24;51.10
43312;BME280;30041;48.300;16.352;2023-06-26T01:05:20;99834.59;;;23.23;50.98
43312;BME280;30041;48.300;16.352;2023-06-26T01:07:47;99836.22;;;23.24;50.96
43312;BME280;30041;48.300;16.352;2023-06-26T01:10:13;99825.41;;;23.24;50.79
43312;BME280;30041;48.300;16.352;2023-06-26T01:12:39;99828.13;;;23.24;50.96
43312;BME280;30041;48.300;16.352;2023-06-26T01:15:05;99830.28;;;23.22;51.20
43312;BME280;30041;48.300;16.352;2023-06-26T01:17:31;99824.88;;;23.22;51.04
43312;BME280;30041;48.300;16.352;2023-06-26T01:20:01;99825.09;;;23.20;51.23
43312;BME280;30041;48.300;16.352;2023-06-26T01:22:43;99824.88;;;23.22;51.29
43312;BME280;30041;48.300;16.352;2023-06-26T01:25:44;99820.50;;;23.21;51.34
43312;BME280;30041;48.300;16.352;2023-06-26T01:28:17;99827.56;;;23.22;51.54
43312;BME280;30041;48.300;16.352;2023-06-26T01:30:45;99823.22;;;23.21;51.56
43312;BME280;30041;48.300;16.352;2023-06-26T01:33:12;99826.16;;;23.19;51.75
43312;BME280;30041;48.300;16.352;2023-06-26T01:35:39;99820.75;;;23.19;51.48
43312;BME280;30041;48.300;16.352;2023-06-26T01:38:13;99822.63;;;23.19;51.44
43312;BME280;30041;48.300;16.352;2023-06-26T01:40:38;99822.88;;;23.17;51.56
43312;BME280;30041;48.300;16.352;2023-06-26T01:43:06;99817.47;;;23.17;51.52
43312;BME280;30041;48.300;16.352;2023-06-26T01:45:35;99812.06;;;23.17;51.35
43312;BME280;30041;48.300;16.352;2023-06-26T01:48:04;99820.16;;;23.17;51.14
43312;BME280;30041;48.300;16.352;2023-06-26T01:50:31;99811.75;;;23.14;51.27
43312;BME280;30041;48.300;16.352;2023-06-26T01:53:04;99803.63;;;23.14;51.13
43312;BME280;30041;48.300;16.352;2023-06-26T01:55:47;99805.53;;;23.13;51.44
43312;BME280;30041;48.300;16.352;2023-06-26T01:58:13;99808.81;;;23.15;51.66
43312;BME280;30041;48.300;16.352;2023-06-26T02:00:40;99804.22;;;23.16;51.22
43312;BME280;30041;48.300;16.352;2023-06-26T02:03:05;99802.56;;;23.15;51.54
43312;BME280;30041;48.300;16.352;2023-06-26T02:05:31;99801.97;;;23.13;51.90
43312;BME280;30041;48.300;16.352;2023-06-26T02:07:56;99800.13;;;23.13;51.65
43312;BME280;30041;48.300;16.352;2023-06-26T02:10:22;99803.06;;;23.12;51.81
43312;BME280;30041;48.300;16.352;2023-06-26T02:12:47;99804.69;;;23.13;51.89
43312;BME280;30041;48.300;16.352;2023-06-26T02:15:13;99796.03;;;23.11;52.12
43312;BME280;30041;48.300;16.352;2023-06-26T02:17:38;99804.38;;;23.09;51.88
43312;BME280;30041;48.300;16.352;2023-06-26T02:20:04;99809.28;;;23.12;51.86
43312;BME280;30041;48.300;16.352;2023-06-26T02:22:30;99805.19;;;23.10;52.01
43312;BME280;30041;48.300;16.352;2023-06-26T02:24:55;99806.00;;;23.10;51.81
43312;BME280;30041;48.300;16.352;2023-06-26T02:27:21;99799.78;;;23.10;51.94
43312;BME280;30041;48.300;16.352;2023-06-26T02:29:47;99811.66;;;23.09;51.75
43312;BME280;30041;48.300;16.352;2023-06-26T02:32:13;99807.88;;;23.10;51.85
43312;BME280;30041;48.300;16.352;2023-06-26T02:34:38;99807.88;;;23.10;51.68
43312;BME280;30041;48.300;16.352;2023-06-26T02:37:04;99808.97;;;23.09;51.89
43312;BME280;30041;48.300;16.352;2023-06-26T02:39:29;99816.00;;;23.10;51.90
43312;BME280;30041;48.300;16.352;2023-06-26T02:41:55;99818.69;;;23.10;51.82
43312;BME280;30041;48.300;16.352;2023-06-26T02:44:20;99816.81;;;23.10;51.85
43312;BME280;30041;48.300;16.352;2023-06-26T02:46:46;99819.28;;;23.12;51.82
43312;BME280;30041;48.300;16.352;2023-06-26T02:49:11;99824.69;;;23.12;51.75
43312;BME280;30041;48.300;16.352;2023-06-26T02:51:37;99826.56;;;23.11;51.64
43312;BME280;30041;48.300;16.352;2023-06-26T02:54:03;99825.75;;;23.11;51.73
43312;BME280;30041;48.300;16.352;2023-06-26T02:56:29;99825.75;;;23.11;51.40
43312;BME280;30041;48.300;16.352;2023-06-26T02:58:55;99822.22;;;23.10;51.70
43312;BME280;30041;48.300;16.352;2023-06-26T03:01:21;99829.28;;;23.11;51.74
43312;BME280;30041;48.300;16.352;2023-06-26T03:03:47;99828.47;;;23.11;51.34
43312;BME280;30041;48.300;16.352;2023-06-26T03:06:13;99829.50;;;23.10;51.41
43312;BME280;30041;48.300;16.352;2023-06-26T03:08:40;99830.31;;;23.10;51.40
43312;BME280;30041;48.300;16.352;2023-06-26T03:11:06;99830.59;;;23.09;51.35
43312;BME280;30041;48.300;16.352;2023-06-26T03:13:35;99834.34;;;23.08;51.44
43312;BME280;30041;48.300;16.352;2023-06-26T03:16:02;99822.94;;;23.06;51.61
43312;BME280;30041;48.300;16.352;2023-06-26T03:18:28;99828.13;;;23.07;51.43
43312;BME280;30041;48.300;16.352;2023-06-26T03:20:54;99833.53;;;23.07;51.63
43312;BME280;30041;48.300;16.352;2023-06-26T03:23:20;99831.06;;;23.06;51.59
43312;BME280;30041;48.300;16.352;2023-06-26T03:25:47;99837.53;;;23.05;51.39
43312;BME280;30041;48.300;16.352;2023-06-26T03:28:13;99832.13;;;23.05;51.30
43312;BME280;30041;48.300;16.352;2023-06-26T03:30:39;99828.34;;;23.06;51.36
43312;BME280;30041;48.300;16.352;2023-06-26T03:33:05;99835.88;;;23.04;51.39
43312;BME280;30041;48.300;16.352;2023-06-26T03:35:30;99833.75;;;23.06;51.17
43312;BME280;30041;48.300;16.352;2023-06-26T03:37:57;99836.22;;;23.07;51.42
43312;BME280;30041;48.300;16.352;2023-06-26T03:40:23;99836.56;;;23.11;51.41
43312;BME280;30041;48.300;16.352;2023-06-26T03:42:48;99843.38;;;23.13;51.41
43312;BME280;30041;48.300;16.352;2023-06-26T03:45:14;99837.84;;;23.08;51.43
43312;BME280;30041;48.300;16.352;2023-06-26T03:47:39;99843.25;;;23.08;51.23
43312;BME280;30041;48.300;16.352;2023-06-26T03:50:05;99842.69;;;23.06;51.51
43312;BME280;30041;48.300;16.352;2023-06-26T03:52:31;99845.16;;;23.08;51.21
43312;BME280;30041;48.300;16.352;2023-06-26T03:54:59;99847.06;;;22.95;51.58
43312;BME280;30041;48.300;16.352;2023-06-26T03:57:25;99845.25;;;22.84;51.71
43312;BME280;30041;48.300;16.352;2023-06-26T03:59:52;99851.03;;;22.76;51.84
43312;BME280;30041;48.300;16.352;2023-06-26T04:02:17;99839.88;;;22.72;51.81
43312;BME280;30041;48.300;16.352;2023-06-26T04:04:43;99834.97;;;22.69;51.81
43312;BME280;30041;48.300;16.352;2023-06-26T04:07:08;99843.56;;;22.66;52.04
43312;BME280;30041;48.300;16.352;2023-06-26T04:09:34;99837.91;;;22.68;51.83
43312;BME280;30041;48.300;16.352;2023-06-26T04:11:59;99850.34;;;22.69;51.65
43312;BME280;30041;48.300;16.352;2023-06-26T04:14:25;99845.41;;;22.66;51.85
43312;BME280;30041;48.300;16.352;2023-06-26T04:16:50;99848.13;;;22.66;51.73
43312;BME280;30041;48.300;16.352;2023-06-26T04:19:16;99845.91;;;22.63;51.63
43312;BME280;30041;48.300;16.352;2023-06-26T04:21:41;99848.03;;;22.61;51.91
43312;BME280;30041;48.300;16.352;2023-06-26T04:24:07;99845.91;;;22.63;51.65
43312;BME280;30041;48.300;16.352;2023-06-26T04:26:32;99846.94;;;22.62;51.63
43312;BME280;30041;48.300;16.352;2023-06-26T04:28:58;99845.31;;;22.61;51.92
43312;BME280;30041;48.300;16.352;2023-06-26T04:31:24;99843.19;;;22.63;51.76
43312;BME280;30041;48.300;16.352;2023-06-26T04:33:49;99838.38;;;22.65;51.61
43312;BME280;30041;48.300;16.352;2023-06-26T04:36:15;99849.19;;;22.65;51.66
43312;BME280;30041;48.300;16.352;2023-06-26T04:38:40;99846.50;;;22.65;51.88
43312;BME280;30041;48.300;16.352;2023-06-26T04:41:06;99840.00;;;22.66;51.70
43312;BME280;30041;48.300;16.352;2023-06-26T04:43:31;99846.41;;;22.59;51.67
43312;BME280;30041;48.300;16.352;2023-06-26T04:45:57;99846.03;;;22.56;52.01
43312;BME280;30041;48.300;16.352;2023-06-26T04:48:22;99845.22;;;22.55;52.43
43312;BME280;30041;48.300;16.352;2023-06-26T04:50:48;99849.56;;;22.56;52.38
43312;BME280;30041;48.300;16.352;2023-06-26T04:53:13;99844.38;;;22.55;52.33
43312;BME280;30041;48.300;16.352;2023-06-26T04:55:39;99848.97;;;22.54;52.57
43312;BME280;30041;48.300;16.352;2023-06-26T04:58:04;99845.94;;;22.51;52.53
43312;BME280;30041;48.300;16.352;2023-06-26T05:00:30;99851.09;;;22.52;52.61
43312;BME280;30041;48.300;16.352;2023-06-26T05:02:55;99855.78;;;22.57;52.80
43312;BME280;30041;48.300;16.352;2023-06-26T05:05:21;99855.63;;;22.64;52.42
43312;BME280;30041;48.300;16.352;2023-06-26T05:07:47;99859.91;;;22.59;52.36
43312;BME280;30041;48.300;16.352;2023-06-26T05:10:12;99860.38;;;22.56;52.57
43312;BME280;30041;48.300;16.352;2023-06-26T05:12:38;99858.75;;;22.55;52.77
43312;BME280;30041;48.300;16.352;2023-06-26T05:15:03;99855.53;;;22.58;52.71
43312;BME280;30041;48.300;16.352;2023-06-26T05:17:29;99857.28;;;22.65;52.65
43312;BME280;30041;48.300;16.352;2023-06-26T05:19:55;99856.66;;;22.74;52.57
43312;BME280;30041;48.300;16.352;2023-06-26T05:22:20;99854.97;;;22.85;52.69
43312;BME280;30041;48.300;16.352;2023-06-26T05:24:47;99855.06;;;22.90;52.71
43312;BME280;30041;48.300;16.352;2023-06-26T05:27:13;99859.16;;;22.93;52.64
43312;BME280;30041;48.300;16.352;2023-06-26T05:29:39;99851.19;;;22.86;53.08
43312;BME280;30041;48.300;16.352;2023-06-26T05:32:05;99860.91;;;22.70;54.14
43312;BME280;30041;48.300;16.352;2023-06-26T05:34:31;99863.03;;;22.68;54.49
43312;BME280;30041;48.300;16.352;2023-06-26T05:36:58;99863.38;;;22.72;54.30
43312;BME280;30041;48.300;16.352;2023-06-26T05:39:25;99864.91;;;22.68;54.56
43312;BME280;30041;48.300;16.352;2023-06-26T05:41:51;99861.75;;;22.71;54.46
43312;BME280;30041;48.300;16.352;2023-06-26T05:44:16;99862.78;;;22.70;54.11
43312;BME280;30041;48.300;16.352;2023-06-26T05:46:43;99855.75;;;22.69;54.21
43312;BME280;30041;48.300;16.352;2023-06-26T05:49:08;99869.50;;;22.67;54.25
43312;BME280;30041;48.300;16.352;2023-06-26T05:51:34;99865.97;;;22.67;54.14
43312;BME280;30041;48.300;16.352;2023-06-26T05:54:00;99859.75;;;22.66;54.29
43312;BME280;30041;48.300;16.352;2023-06-26T05:56:26;99861.75;;;22.71;53.99
43312;BME280;30041;48.300;16.352;2023-06-26T05:58:52;99860.19;;;22.75;54.33
43312;BME280;30041;48.300;16.352;2023-06-26T06:01:18;99847.03;;;22.78;53.96
43312;BME280;30041;48.300;16.352;2023-06-26T06:03:44;99853.59;;;22.83;53.56
43312;BME280;30041;48.300;16.352;2023-06-26T06:06:09;99844.75;;;22.87;53.59
43312;BME280;30041;48.300;16.352;2023-06-26T06:08:35;99844.84;;;22.92;53.25
43312;BME280;30041;48.300;16.352;2023-06-26T06:11:01;99849.19;;;22.93;53.26
43312;BME280;30041;48.300;16.352;2023-06-26T06:13:27;99849.78;;;22.95;52.96
43312;BME280;30041;48.300;16.352;2023-06-26T06:15:52;99844.97;;;22.97;53.09
43312;BME280;30041;48.300;16.352;2023-06-26T06:18:18;99846.59;;;22.98;53.13
43312;BME280;30041;48.300;16.352;2023-06-26T06:20:43;99837.66;;;22.98;53.05
43312;BME280;30041;48.300;16.352;2023-06-26T06:23:09;99845.53;;;22.99;53.09
43312;BME280;30041;48.300;16.352;2023-06-26T06:25:34;99844.69;;;22.99;53.36
43312;BME280;30041;48.300;16.352;2023-06-26T06:28:00;99848.81;;;23.02;53.01
43312;BME280;30041;48.300;16.352;2023-06-26T06:30:25;99858.00;;;23.00;52.94
43312;BME280;30041;48.300;16.352;2023-06-26T06:32:51;99850.94;;;22.99;53.00
43312;BME280;30041;48.300;16.352;2023-06-26T06:35:18;99855.06;;;23.02;52.93
43312;BME280;30041;48.300;16.352;2023-06-26T06:37:43;99852.59;;;23.00;52.96
43312;BME280;30041;48.300;16.352;2023-06-26T06:40:10;99855.06;;;23.02;52.76
43312;BME280;30041;48.300;16.352;2023-06-26T06:42:35;99863.75;;;23.04;52.98
43312;BME280;30041;48.300;16.352;2023-06-26T06:45:05;99851.06;;;23.05;52.75
43312;BME280;30041;48.300;16.352;2023-06-26T06:47:32;99853.19;;;23.03;52.96
43312;BME280;30041;48.300;16.352;2023-06-26T06:49:58;99852.69;;;23.06;52.98
43312;BME280;30041;48.300;16.352;2023-06-26T06:52:23;99850.78;;;23.06;52.95
43312;BME280;30041;48.300;16.352;2023-06-26T06:54:56;99855.38;;;23.06;52.87
43312;BME280;30041;48.300;16.352;2023-06-26T06:57:22;99848.34;;;23.05;52.90
43312;BME280;30041;48.300;16.352;2023-06-26T06:59:48;99850.25;;;23.04;52.83
43312;BME280;30041;48.300;16.352;2023-06-26T07:02:14;99848.59;;;23.03;52.83
43312;BME280;30041;48.300;16.352;2023-06-26T07:04:39;99846.13;;;23.02;53.08
43312;BME280;30041;48.300;16.352;2023-06-26T07:07:05;99852.59;;;23.00;52.95
43312;BME280;30041;48.300;16.352;2023-06-26T07:09:31;99846.38;;;23.00;53.01
43312;BME280;30041;48.300;16.352;2023-06-26T07:11:56;99848.25;;;22.99;52.59
43312;BME280;30041;48.300;16.352;2023-06-26T07:14:22;99849.91;;;23.00;52.71
43312;BME280;30041;48.300;16.352;2023-06-26T07:16:47;99847.41;;;22.99;52.86
43312;BME280;30041;48.300;16.352;2023-06-26T07:19:13;99852.00;;;22.98;52.80
43312;BME280;30041;48.300;16.352;2023-06-26T07:21:38;99848.25;;;22.99;52.81
43312;BME280;30041;48.300;16.352;2023-06-26T07:24:04;99851.53;;;23.02;52.67
43312;BME280;30041;48.300;16.352;2023-06-26T07:26:30;99846.13;;;23.02;52.87
43312;BME280;30041;48.300;16.352;2023-06-26T07:28:55;99848.81;;;23.02;52.84
43312;BME280;30041;48.300;16.352;2023-06-26T07:31:21;99852.94;;;23.04;52.86
43312;BME280;30041;48.300;16.352;2023-06-26T07:33:46;99849.16;;;23.05;52.66
43312;BME280;30041;48.300;16.352;2023-06-26T07:36:12;99850.78;;;23.06;52.84
43312;BME280;30041;48.300;16.352;2023-06-26T07:38:37;99847.78;;;23.03;52.46
43312;BME280;30041;48.300;16.352;2023-06-26T07:41:03;99854.81;;;23.04;52.64
43312;BME280;30041;48.300;16.352;2023-06-26T07:43:28;99851.88;;;23.05;52.87
43312;BME280;30041;48.300;16.352;2023-06-26T07:45:54;99851.06;;;23.05;52.92
43312;BME280;30041;48.300;16.352;2023-06-26T07:48:20;99855.38;;;23.06;52.34
43312;BME280;30041;48.300;16.352;2023-06-26T07:50:45;99854.81;;;23.04;52.52
43312;BME280;30041;48.300;16.352;2023-06-26T07:53:11;99857.28;;;23.05;52.56
43312;BME280;30041;48.300;16.352;2023-06-26T07:55:36;99852.69;;;23.06;52.68
43312;BME280;30041;48.300;16.352;2023-06-26T07:58:02;99850.56;;;23.08;52.47
43312;BME280;30041;48.300;16.352;2023-06-26T08:00:28;99850.78;;;23.06;52.69
43312;BME280;30041;48.300;16.352;2023-06-26T08:02:54;99851.63;;;23.07;52.63
43312;BME280;30041;48.300;16.352;2023-06-26T08:05:19;99846.22;;;23.07;52.69
43312;BME280;30041;48.300;16.352;2023-06-26T08:07:45;99841.88;;;23.06;52.48
43312;BME280;30041;48.300;16.352;2023-06-26T08:10:10;99848.66;;;23.08;52.68
43312;BME280;30041;48.300;16.352;2023-06-26T08:12:36;99845.16;;;23.08;52.79
43312;BME280;30041;48.300;16.352;2023-06-26T08:15:02;99852.44;;;23.07;52.74
43312;BME280;30041;48.300;16.352;2023-06-26T08:17:27;99849.25;;;23.10;52.61
43312;BME280;30041;48.300;16.352;2023-06-26T08:19:53;99848.44;;;23.10;52.53
43312;BME280;30041;48.300;16.352;2023-06-26T08:22:18;99854.91;;;23.09;52.71
43312;BME280;30041;48.300;16.352;2023-06-26T08:24:44;99850.56;;;23.08;52.45
43312;BME280;30041;48.300;16.352;2023-06-26T08:27:10;99845.16;;;23.08;52.52
43312;BME280;30041;48.300;16.352;2023-06-26T08:29:35;99845.16;;;23.08;52.68
43312;BME280;30041;48.300;16.352;2023-06-26T08:32:01;99838.69;;;23.09;52.39
43312;BME280;30041;48.300;16.352;2023-06-26T08:34:26;99843.84;;;23.10;52.26
43312;BME280;30041;48.300;16.352;2023-06-26T08:36:52;99841.97;;;23.11;52.37
43312;BME280;30041;48.300;16.352;2023-06-26T08:39:17;99841.97;;;23.11;52.40
43312;BME280;30041;48.300;16.352;2023-06-26T08:41:43;99840.31;;;23.10;52.25
43312;BME280;30041;48.300;16.352;2023-06-26T08:44:08;99845.50;;;23.11;52.25
43312;BME280;30041;48.300;16.352;2023-06-26T08:46:34;99835.50;;;23.12;52.35
43312;BME280;30041;48.300;16.352;2023-06-26T08:49:31;99833.28;;;23.09;52.26
43312;BME280;30041;48.300;16.352;2023-06-26T08:55:06;99829.00;;;23.13;52.76
43312;BME280;30041;48.300;16.352;2023-06-26T08:57:35;99822.56;;;23.14;52.70
43312;BME280;30041;48.300;16.352;2023-06-26T09:00:00;99823.72;;;23.18;52.58
43312;BME280;30041;48.300;16.352;2023-06-26T09:02:30;99817.16;;;23.14;52.49
43312;BME280;30041;48.300;16.352;2023-06-26T09:04:56;99819.34;;;23.17;52.22
43312;BME280;30041;48.300;16.352;2023-06-26T09:07:22;99819.94;;;23.19;52.30
43312;BME280;30041;48.300;16.352;2023-06-26T09:09:47;99818.31;;;23.18;52.14
43312;BME280;30041;48.300;16.352;2023-06-26T09:12:13;99811.59;;;23.20;52.68
43312;BME280;30041;48.300;16.352;2023-06-26T09:14:39;99818.16;;;23.25;52.41
43312;BME280;30041;48.300;16.352;2023-06-26T09:17:06;99809.47;;;23.23;52.13
43312;BME280;30041;48.300;16.352;2023-06-26T09:19:31;99810.78;;;23.20;52.27
43312;BME280;30041;48.300;16.352;2023-06-26T09:21:57;99808.66;;;23.22;52.30
43312;BME280;30041;48.300;16.352;2023-06-26T09:24:23;99811.59;;;23.20;51.83
43312;BME280;30041;48.300;16.352;2023-06-26T09:26:49;99809.13;;;23.19;51.99
43312;BME280;30041;48.300;16.352;2023-06-26T09:29:17;99802.09;;;23.18;51.94
43312;BME280;30041;48.300;16.352;2023-06-26T09:31:43;99803.94;;;23.17;52.17
43312;BME280;30041;48.300;16.352;2023-06-26T09:34:10;99801.50;;;23.16;52.33
43312;BME280;30041;48.300;16.352;2023-06-26T09:36:36;99807.50;;;23.18;52.21
43312;BME280;30041;48.300;16.352;2023-06-26T09:39:03;99795.13;;;23.22;52.22
43312;BME280;30041;48.300;16.352;2023-06-26T09:41:29;99801.09;;;23.24;52.03
43312;BME280;30041;48.300;16.352;2023-06-26T09:43:58;99799.69;;;23.21;51.93
43312;BME280;30041;48.300;16.352;2023-06-26T09:46:30;99803.25;;;23.22;51.69
43312;BME280;30041;48.300;16.352;2023-06-26T09:49:05;99800.78;;;23.20;51.57
43312;BME280;30041;48.300;16.352;2023-06-26T09:51:35;99798.31;;;23.19;51.90
43312;BME280;30041;48.300;16.352;2023-06-26T09:54:03;99801.00;;;23.19;51.83
43312;BME280;30041;48.300;16.352;2023-06-26T09:56:30;99792.91;;;23.19;51.84
43312;BME280;30041;48.300;16.352;2023-06-26T09:58:57;99794.28;;;23.21;51.94
43312;BME280;30041;48.300;16.352;2023-06-26T10:01:26;99787.00;;;23.22;51.55
43312;BME280;30041;48.300;16.352;2023-06-26T10:03:53;99790.53;;;23.23;51.60
43312;BME280;30041;48.300;16.352;2023-06-26T10:06:27;99790.78;;;23.21;51.94
43312;BME280;30041;48.300;16.352;2023-06-26T10:08:54;99781.25;;;23.18;51.94
43312;BME280;30041;48.300;16.352;2023-06-26T10:11:22;99786.44;;;23.20;51.71
43312;BME280;30041;48.300;16.352;2023-06-26T10:13:51;99781.59;;;23.22;51.80
43312;BME280;30041;48.300;16.352;2023-06-26T10:16:30;99781.84;;;23.20;51.43
43312;BME280;30041;48.300;16.352;2023-06-26T10:19:01;99772.06;;;23.19;52.12
43312;BME280;30041;48.300;16.352;2023-06-26T10:21:31;99777.81;;;23.23;51.46
43312;BME280;30041;48.300;16.352;2023-06-26T10:23:57;99773.72;;;23.20;51.62
43312;BME280;30041;48.300;16.352;2023-06-26T10:26:24;99770.78;;;23.22;51.82
43312;BME280;30041;48.300;16.352;2023-06-26T10:28:52;99757.28;;;23.22;51.90
43312;BME280;30041;48.300;16.352;2023-06-26T10:31:21;99762.41;;;23.24;51.89
43312;BME280;30041;48.300;16.352;2023-06-26T10:33:49;99758.66;;;23.25;51.93
43312;BME280;30041;48.300;16.352;2023-06-26T10:36:20;99759.97;;;23.22;51.68
43312;BME280;30041;48.300;16.352;2023-06-26T10:39:01;99761.59;;;23.23;51.60
43312;BME280;30041;48.300;16.352;2023-06-26T10:41:36;99763.22;;;23.24;51.88
43312;BME280;30041;48.300;16.352;2023-06-26T10:46:27;99764.88;;;23.25;51.67
43312;BME280;30041;48.300;16.352;2023-06-26T10:49:00;99754.66;;;23.27;51.59
43312;BME280;30041;48.300;16.352;2023-06-26T10:51:27;99757.28;;;23.22;51.56
43312;BME280;30041;48.300;16.352;2023-06-26T10:53:57;99748.91;;;23.24;51.51
43312;BME280;30041;48.300;16.352;2023-06-26T10:56:44;99763.00;;;23.26;51.54
43312;BME280;30041;48.300;16.352;2023-06-26T10:59:30;99761.38;;;23.25;51.54
43312;BME280;30041;48.300;16.352;2023-06-26T11:02:00;99749.72;;;23.24;51.91
43312;BME280;30041;48.300;16.352;2023-06-26T11:04:38;99751.94;;;23.27;51.74
43312;BME280;30041;48.300;16.352;2023-06-26T11:07:24;99751.34;;;23.25;51.68
43312;BME280;30041;48.300;16.352;2023-06-26T11:10:08;99749.72;;;23.24;51.79
43312;BME280;30041;48.300;16.352;2023-06-26T11:15:00;99745.72;;;23.27;51.19
43312;BME280;30041;48.300;16.352;2023-06-26T11:17:27;99746.28;;;23.29;51.25
43312;BME280;30041;48.300;16.352;2023-06-26T11:19:52;99743.00;;;23.27;51.49
43312;BME280;30041;48.300;16.352;2023-06-26T11:22:19;99745.16;;;23.25;51.59
43312;BME280;30041;48.300;16.352;2023-06-26T11:24:45;99734.06;;;23.26;51.26
43312;BME280;30041;48.300;16.352;2023-06-26T11:27:11;99736.19;;;23.24;51.60
43312;BME280;30041;48.300;16.352;2023-06-26T11:29:37;99744.63;;;23.28;51.54
43312;BME280;30041;48.300;16.352;2023-06-26T11:32:04;99735.47;;;23.29;51.62
43312;BME280;30041;48.300;16.352;2023-06-26T11:34:30;99735.47;;;23.29;51.30
43312;BME280;30041;48.300;16.352;2023-06-26T11:36:56;99733.00;;;23.27;51.56
43312;BME280;30041;48.300;16.352;2023-06-26T11:39:22;99732.78;;;23.29;51.13
43312;BME280;30041;48.300;16.352;2023-06-26T11:41:49;99727.09;;;23.30;51.41
43312;BME280;30041;48.300;16.352;2023-06-26T11:44:14;99720.31;;;23.28;51.30
43312;BME280;30041;48.300;16.352;2023-06-26T11:46:40;99729.22;;;23.28;51.17
43312;BME280;30041;48.300;16.352;2023-06-26T11:49:06;99728.19;;;23.29;51.45
43312;BME280;30041;48.300;16.352;2023-06-26T11:51:32;99718.41;;;23.28;51.55
43312;BME280;30041;48.300;16.352;2023-06-26T11:54:01;99720.31;;;23.28;51.59
43312;BME280;30041;48.300;16.352;2023-06-26T11:56:26;99715.72;;;23.28;51.36
43312;BME280;30041;48.300;16.352;2023-06-26T11:59:02;99717.34;;;23.29;51.41
43312;BME280;30041;48.300;16.352;2023-06-26T12:01:54;99710.06;;;23.30;51.53
43312;BME280;30041;48.300;16.352;2023-06-26T12:04:19;99706.28;;;23.31;51.22
43312;BME280;30041;48.300;16.352;2023-06-26T12:06:48;99702.53;;;23.32;51.27
43312;BME280;30041;48.300;16.352;2023-06-26T12:09:16;99707.34;;;23.30;51.41
43312;BME280;30041;48.300;16.352;2023-06-26T12:11:44;99696.53;;;23.30;51.55
43312;BME280;30041;48.300;16.352;2023-06-26T12:14:11;99695.47;;;23.31;51.55
43312;BME280;30041;48.300;16.352;2023-06-26T12:16:37;99707.34;;;23.30;51.38
43312;BME280;30041;48.300;16.352;2023-06-26T12:19:04;99697.69;;;23.34;51.52
43312;BME280;30041;48.300;16.352;2023-06-26T12:24:05;99686.88;;;23.34;51.32
43312;BME280;30041;48.300;16.352;2023-06-26T12:26:31;99683.59;;;23.32;51.40
43312;BME280;30041;48.300;16.352;2023-06-26T12:29:13;99684.41;;;23.32;51.18
43312;BME280;30041;48.300;16.352;2023-06-26T12:31:43;99687.09;;;23.32;51.41
43312;BME280;30041;48.300;16.352;2023-06-26T12:34:10;99686.06;;;23.33;51.10
43312;BME280;30041;48.300;16.352;2023-06-26T12:36:43;99676.28;;;23.32;51.36
43312;BME280;30041;48.300;16.352;2023-06-26T12:39:10;99680.66;;;23.33;51.29
43312;BME280;30041;48.300;16.352;2023-06-26T12:44:24;99669.84;;;23.33;51.27
43312;BME280;30041;48.300;16.352;2023-06-26T12:46:57;99673.59;;;23.32;51.39
43312;BME280;30041;48.300;16.352;2023-06-26T12:49:38;99674.16;;;23.34;51.16
43312;BME280;30041;48.300;16.352;2023-06-26T12:52:06;99672.03;;;23.36;51.45
43312;BME280;30041;48.300;16.352;2023-06-26T12:54:34;99669.66;;;23.40;51.01
43312;BME280;30041;48.300;16.352;2023-06-26T12:56:59;99673.75;;;23.42;51.39
43312;BME280;30041;48.300;16.352;2023-06-26T12:59:25;99666.19;;;23.45;51.48
43312;BME280;30041;48.300;16.352;2023-06-26T13:01:51;99668.56;;;23.41;51.23
43312;BME280;30041;48.300;16.352;2023-06-26T13:04:17;99668.56;;;23.41;51.82